Time;durP1;ratioP1;P1;durP2;ratioP2;P2;SDS_P1;SDS_P2;PMS_P1;PMS_P2;Temp;Humidity;BMP_temperature;BMP_pressure;BME280_temperature;BME280_humidity;BME280_pressure;Samples;Min_cycle;Max_cycle;Signal;HPM_P1;HPM_P2
2022/03/16 00:00:22;;;;;;;8.68;3.42;;;18.30;50.30;;;;;;4952469;29;20043;-84
2022/03/16 00:02:48;;;;;;;9.68;3.75;;;18.30;50.40;;;;;;4952025;29;20134;-84
2022/03/16 00:05:14;;;;;;;7.88;3.85;;;18.30;50.30;;;;;;4952712;29;20087;-84
2022/03/16 00:07:39;;;;;;;7.53;3.33;;;18.30;50.30;;;;;;4952475;29;20393;-85
2022/03/16 00:10:07;;;;;;;9.85;4.03;;;18.30;50.40;;;;;;4951913;29;20513;-84
2022/03/16 00:12:33;;;;;;;6.95;3.20;;;18.30;50.30;;;;;;4935541;29;20058;-84
2022/03/16 00:14:59;;;;;;;9.00;3.60;;;18.30;50.40;;;;;;4952380;29;20185;-85
2022/03/16 00:17:24;;;;;;;7.38;3.40;;;18.30;50.30;;;;;;4934732;29;20749;-84
2022/03/16 00:19:50;;;;;;;7.70;3.13;;;18.30;50.40;;;;;;4935122;29;20042;-85
2022/03/16 00:22:16;;;;;;;8.07;3.30;;;18.30;50.40;;;;;;4933338;29;20606;-84
2022/03/16 00:24:41;;;;;;;8.70;3.38;;;18.30;50.40;;;;;;4934903;29;20090;-84
2022/03/16 00:27:07;;;;;;;8.05;3.88;;;18.30;50.40;;;;;;4952244;29;20170;-84
2022/03/16 00:29:32;;;;;;;6.80;2.92;;;18.30;50.40;;;;;;4935122;29;20130;-85
2022/03/16 00:31:59;;;;;;;11.68;3.50;;;18.30;50.40;;;;;;4934623;29;20090;-84
2022/03/16 00:34:24;;;;;;;7.85;3.33;;;18.20;50.30;;;;;;4934851;29;20043;-85
2022/03/16 00:36:50;;;;;;;7.05;3.28;;;18.30;50.40;;;;;;4938604;29;20058;-87
2022/03/16 00:39:15;;;;;;;8.07;3.25;;;18.20;50.30;;;;;;4938604;29;20047;-85
2022/03/16 00:41:41;;;;;;;7.85;3.47;;;18.30;50.40;;;;;;4938658;29;20138;-85
2022/03/16 00:44:07;;;;;;;7.70;3.17;;;18.40;50.40;;;;;;4938838;29;20403;-85
2022/03/16 00:46:32;;;;;;;8.32;3.33;;;19.10;50.80;;;;;;4955601;29;20059;-84
2022/03/16 00:48:58;;;;;;;5.82;2.65;;;18.20;50.30;;;;;;4938273;29;20051;-85
2022/03/16 00:51:24;;;;;;;6.93;3.17;;;18.20;50.30;;;;;;4938530;29;20050;-84
2022/03/16 00:53:49;;;;;;;7.32;2.78;;;18.20;50.30;;;;;;4937908;29;20202;-84
2022/03/16 00:56:15;;;;;;;6.57;2.70;;;18.20;50.30;;;;;;4938399;29;20051;-85
2022/03/16 00:58:40;;;;;;;6.47;2.78;;;18.20;50.30;;;;;;4955988;29;20052;-85
2022/03/16 01:01:06;;;;;;;7.35;3.35;;;18.20;50.30;;;;;;4937739;29;20047;-85
2022/03/16 01:03:40;;;;;;;6.13;2.75;;;18.20;50.30;;;;;;4937982;29;20054;-85
2022/03/16 01:06:06;;;;;;;6.90;2.75;;;18.20;50.30;;;;;;4955236;29;20941;-85
2022/03/16 01:08:31;;;;;;;7.10;2.95;;;18.20;50.30;;;;;;4938430;29;20178;-85
2022/03/16 01:10:57;;;;;;;6.50;2.72;;;18.20;50.30;;;;;;4938141;29;20101;-85
2022/03/16 01:13:22;;;;;;;6.10;2.83;;;18.20;50.30;;;;;;4921875;29;20118;-85
2022/03/16 01:15:48;;;;;;;6.50;2.70;;;18.20;50.20;;;;;;4938219;29;20519;-85
2022/03/16 01:18:15;;;;;;;5.47;2.50;;;19.10;50.80;;;;;;4938181;29;20400;-85
2022/03/16 01:20:41;;;;;;;6.45;2.70;;;18.20;50.30;;;;;;4954850;29;20055;-86
2022/03/16 01:23:06;;;;;;;5.75;2.55;;;18.20;50.30;;;;;;4955191;29;20681;-85
2022/03/16 01:25:32;;;;;;;6.43;2.85;;;18.10;50.30;;;;;;4937822;29;20141;-85
2022/03/16 01:27:58;;;;;;;7.38;2.70;;;18.20;50.20;;;;;;4954946;29;20126;-85
2022/03/16 01:30:23;;;;;;;4.82;2.30;;;18.10;50.20;;;;;;4955194;29;20047;-85
2022/03/16 01:32:49;;;;;;;6.97;2.83;;;18.10;50.20;;;;;;4938112;29;20051;-85
2022/03/16 01:35:18;;;;;;;8.02;3.10;;;18.10;50.30;;;;;;4937273;29;20055;-86
2022/03/16 01:37:47;;;;;;;7.60;3.53;;;19.20;50.80;;;;;;4937482;29;20055;-84
2022/03/16 01:40:12;;;;;;;6.15;2.55;;;18.10;50.20;;;;;;4937805;29;20059;-85
2022/03/16 01:42:39;;;;;;;6.30;2.70;;;18.10;50.20;;;;;;4937202;29;20134;-85
2022/03/16 01:45:05;;;;;;;7.45;2.97;;;18.10;50.60;;;;;;4937555;29;20057;-85
2022/03/16 01:47:31;;;;;;;5.93;2.70;;;18.10;50.20;;;;;;4953882;28;20090;-86
2022/03/16 01:49:57;;;;;;;6.07;2.47;;;18.10;50.20;;;;;;4954227;29;20083;-86
2022/03/16 01:52:23;;;;;;;6.70;3.00;;;18.10;50.20;;;;;;4936711;29;20056;-85
2022/03/16 01:54:52;;;;;;;7.05;2.88;;;18.10;50.20;;;;;;4937197;29;20551;-85
2022/03/16 01:57:18;;;;;;;5.97;2.70;;;18.10;50.20;;;;;;4936936;29;20063;-85
2022/03/16 01:59:43;;;;;;;5.53;2.50;;;18.10;50.30;;;;;;4921144;29;20131;-86
2022/03/16 02:02:09;;;;;;;7.05;2.72;;;18.10;50.20;;;;;;4954302;29;20093;-85
2022/03/16 02:04:35;;;;;;;5.88;2.58;;;18.10;50.20;;;;;;4954678;29;20500;-85
2022/03/16 02:07:00;;;;;;;5.32;2.58;;;18.10;50.20;;;;;;4936940;29;20046;-86
2022/03/16 02:09:26;;;;;;;5.85;2.58;;;18.10;50.20;;;;;;4953875;29;20051;-86
2022/03/16 02:11:52;;;;;;;6.35;2.22;;;18.10;50.20;;;;;;4936392;29;20059;-85
2022/03/16 02:14:20;;;;;;;6.05;2.58;;;18.10;50.20;;;;;;4937019;29;20047;-85
2022/03/16 02:16:46;;;;;;;5.80;2.45;;;18.10;50.20;;;;;;4953832;29;20047;-86
2022/03/16 02:19:12;;;;;;;4.70;2.65;;;18.10;50.20;;;;;;4954463;29;20141;-86
2022/03/16 02:21:38;;;;;;;4.32;2.00;;;18.10;50.10;;;;;;4954599;29;20110;-86
2022/03/16 02:24:07;;;;;;;5.38;2.70;;;18.90;50.60;;;;;;4936100;29;20051;-86
2022/03/16 02:26:33;;;;;;;5.70;2.90;;;18.00;50.10;;;;;;4936598;29;20043;-87
2022/03/16 02:29:01;;;;;;;5.03;2.20;;;18.10;50.10;;;;;;4954204;29;20043;-87
2022/03/16 02:31:27;;;;;;;6.07;2.10;;;18.10;50.20;;;;;;4936333;29;20062;-86
2022/03/16 02:33:53;;;;;;;5.47;2.45;;;18.00;50.10;;;;;;4953942;29;20050;-86
2022/03/16 02:36:18;;;;;;;4.35;2.25;;;18.00;50.10;;;;;;4954204;29;20040;-86
2022/03/16 02:38:44;;;;;;;4.80;2.17;;;18.10;50.10;;;;;;4936067;29;20492;-86
2022/03/16 02:41:10;;;;;;;4.85;2.65;;;18.00;50.10;;;;;;4953691;29;20174;-86
2022/03/16 02:43:36;;;;;;;4.32;1.95;;;18.00;50.10;;;;;;4936287;29;20058;-87
2022/03/16 02:46:01;;;;;;;6.00;2.42;;;19.40;50.80;;;;;;4935865;29;20051;-85
2022/03/16 02:48:27;;;;;;;4.93;2.22;;;18.00;50.10;;;;;;4936443;29;20514;-85
2022/03/16 02:50:55;;;;;;;5.38;2.22;;;18.00;50.10;;;;;;4936366;29;20134;-85
2022/03/16 02:53:24;;;;;;;3.97;1.95;;;17.70;49.90;;;;;;4935971;29;20186;-87
2022/03/16 02:55:55;;;;;;;3.50;1.77;;;18.00;50.10;;;;;;4935939;29;20047;-86
2022/03/16 02:58:24;;;;;;;4.65;2.20;;;18.00;50.10;;;;;;4953014;28;20051;-86
2022/03/16 03:00:52;;;;;;;5.18;2.42;;;18.30;50.30;;;;;;4936082;29;20054;-87
2022/03/16 03:03:18;;;;;;;4.47;2.22;;;18.00;50.10;;;;;;4936120;29;20117;-87
2022/03/16 03:05:43;;;;;;;5.15;2.60;;;18.00;50.10;;;;;;4935436;29;20055;-87
2022/03/16 03:08:09;;;;;;;4.07;1.92;;;18.00;50.10;;;;;;4953066;29;20051;-86
2022/03/16 03:10:34;;;;;;;4.03;1.77;;;18.00;50.10;;;;;;4953490;29;20058;-87
2022/03/16 03:13:00;;;;;;;4.18;1.73;;;18.00;50.10;;;;;;4952904;29;20043;-87
2022/03/16 03:15:26;;;;;;;4.38;2.30;;;17.90;50.00;;;;;;4935577;29;20624;-86
2022/03/16 03:17:51;;;;;;;4.75;1.80;;;18.00;50.10;;;;;;4935845;29;20172;-86
2022/03/16 03:20:17;;;;;;;5.72;2.40;;;17.90;50.00;;;;;;4952609;29;20121;-86
2022/03/16 03:22:43;;;;;;;6.07;2.22;;;19.50;50.90;;;;;;4952748;29;20148;-86
2022/03/16 03:25:13;;;;;;;5.20;1.95;;;17.90;50.00;;;;;;4953041;29;20488;-86
2022/03/16 03:27:38;;;;;;;4.10;1.73;;;17.90;50.00;;;;;;4935132;29;20059;-86
2022/03/16 03:30:05;;;;;;;4.38;1.92;;;19.40;50.80;;;;;;4952874;29;20054;-86
2022/03/16 03:32:34;;;;;;;4.60;2.15;;;17.90;50.00;;;;;;4952981;29;20105;-86
2022/03/16 03:34:59;;;;;;;4.38;1.88;;;17.90;50.00;;;;;;4935030;29;20131;-85
2022/03/16 03:37:30;;;;;;;3.92;1.83;;;17.90;50.00;;;;;;4935727;29;20055;-85
2022/03/16 03:39:57;;;;;;;3.70;1.67;;;17.90;50.00;;;;;;4952545;29;20039;-86
2022/03/16 03:42:22;;;;;;;5.05;1.80;;;17.90;50.00;;;;;;4952260;29;20817;-85
2022/03/16 03:44:48;;;;;;;4.20;1.98;;;17.90;50.00;;;;;;4935566;29;20051;-86
2022/03/16 03:47:16;;;;;;;3.92;1.80;;;17.90;50.00;;;;;;4953007;29;20487;-86
2022/03/16 03:49:42;;;;;;;4.82;2.20;;;17.90;50.10;;;;;;4951714;29;20052;-85
2022/03/16 03:52:08;;;;;;;3.70;1.50;;;17.90;50.00;;;;;;4935343;29;20053;-85
2022/03/16 03:54:33;;;;;;;3.63;1.80;;;17.90;50.00;;;;;;4952288;29;20501;-84
2022/03/16 03:56:59;;;;;;;4.25;2.05;;;17.90;50.00;;;;;;4952755;29;20110;-86
2022/03/16 03:59:24;;;;;;;3.80;1.52;;;17.90;50.00;;;;;;4952411;29;20485;-87
2022/03/16 04:01:50;;;;;;;3.65;1.55;;;17.90;50.00;;;;;;4934889;29;20051;-85
2022/03/16 04:04:16;;;;;;;4.05;1.70;;;17.90;50.00;;;;;;4952454;29;20054;-85
2022/03/16 04:06:42;;;;;;;3.58;1.60;;;19.00;50.60;;;;;;4952430;29;20043;-85
2022/03/16 04:09:10;;;;;;;4.03;1.70;;;17.90;49.90;;;;;;4934862;29;20441;-85
2022/03/16 04:11:36;;;;;;;4.43;2.10;;;17.90;50.00;;;;;;4918711;29;20062;-85
2022/03/16 04:14:05;;;;;;;4.47;2.00;;;17.90;49.90;;;;;;4952704;29;20043;-85
2022/03/16 04:16:30;;;;;;;3.67;1.70;;;17.90;50.00;;;;;;4934342;29;20047;-85
2022/03/16 04:18:56;;;;;;;4.15;1.50;;;17.90;50.00;;;;;;4952385;29;20542;-85
2022/03/16 04:21:22;;;;;;;3.33;1.52;;;17.80;49.90;;;;;;4952273;29;20126;-85
2022/03/16 04:23:50;;;;;;;3.40;1.52;;;17.80;49.90;;;;;;4952008;29;20492;-85
2022/03/16 04:26:16;;;;;;;4.50;2.00;;;18.00;50.10;;;;;;4934783;29;20061;-85
2022/03/16 04:28:42;;;;;;;3.70;1.70;;;17.80;49.90;;;;;;4952224;29;20532;-85
2022/03/16 04:31:08;;;;;;;3.58;1.50;;;17.80;49.90;;;;;;4951771;29;20098;-85
2022/03/16 04:33:33;;;;;;;4.20;1.60;;;17.80;49.90;;;;;;4951997;29;20047;-84
2022/03/16 04:35:59;;;;;;;3.45;1.50;;;17.80;49.90;;;;;;4935203;29;20564;-85
2022/03/16 04:38:24;;;;;;;3.92;1.40;;;17.80;49.90;;;;;;4951718;29;20043;-85
2022/03/16 04:40:50;;;;;;;3.67;1.42;;;17.80;49.90;;;;;;4934816;29;20131;-85
2022/03/16 04:43:16;;;;;;;2.92;1.27;;;17.80;49.80;;;;;;4952395;29;20047;-85
2022/03/16 04:45:41;;;;;;;3.15;1.38;;;17.80;49.80;;;;;;4934461;29;20450;-85
2022/03/16 04:48:08;;;;;;;2.80;1.20;;;17.80;49.80;;;;;;4934656;29;20110;-86
2022/03/16 04:50:37;;;;;;;3.35;1.45;;;17.50;49.70;;;;;;4935435;29;20055;-85
2022/03/16 04:53:02;;;;;;;3.35;1.73;;;17.80;49.80;;;;;;4934527;29;20062;-85
2022/03/16 04:55:28;;;;;;;3.83;1.60;;;17.80;49.90;;;;;;4951552;29;20500;-85
2022/03/16 04:57:53;;;;;;;3.30;1.30;;;17.70;49.80;;;;;;4951759;29;20051;-85
2022/03/16 05:00:25;;;;;;;3.15;1.40;;;17.80;49.80;;;;;;4951898;29;20407;-86
2022/03/16 05:02:51;;;;;;;3.45;1.55;;;17.80;49.90;;;;;;4952057;29;20134;-85
2022/03/16 05:05:16;;;;;;;3.08;1.30;;;17.80;49.80;;;;;;4934594;29;20138;-86
2022/03/16 05:07:42;;;;;;;3.20;1.55;;;17.80;49.90;;;;;;4934077;29;20047;-86
2022/03/16 05:10:07;;;;;;;3.40;1.60;;;18.20;50.10;;;;;;4934689;29;20134;-86
2022/03/16 05:12:37;;;;;;;3.03;1.38;;;17.80;49.80;;;;;;4951698;29;20050;-86
2022/03/16 05:15:07;;;;;;;3.92;1.50;;;17.70;49.80;;;;;;4934510;29;20444;-86
2022/03/16 05:17:36;;;;;;;3.35;1.50;;;17.80;49.80;;;;;;4934908;29;20051;-85
2022/03/16 05:20:01;;;;;;;3.70;1.50;;;18.70;50.30;;;;;;4934050;29;20050;-87
2022/03/16 05:22:27;;;;;;;2.63;1.35;;;17.70;49.80;;;;;;4952730;28;20404;-86
2022/03/16 05:24:53;;;;;;;2.78;1.33;;;17.70;49.80;;;;;;4955415;29;20093;-86
2022/03/16 05:27:20;;;;;;;3.40;1.50;;;17.70;49.80;;;;;;4937729;29;20051;-86
2022/03/16 05:29:46;;;;;;;3.55;1.35;;;17.70;49.80;;;;;;4955593;29;20054;-87
2022/03/16 05:32:11;;;;;;;4.18;1.67;;;17.90;49.90;;;;;;4938115;29;20055;-87
2022/03/16 05:34:37;;;;;;;3.38;1.50;;;17.70;49.80;;;;;;4954920;29;20050;-86
2022/03/16 05:37:03;;;;;;;3.30;1.35;;;17.70;49.80;;;;;;4954801;29;20476;-86
2022/03/16 05:39:29;;;;;;;2.97;1.50;;;17.70;49.80;;;;;;4954968;29;20119;-87
2022/03/16 05:41:54;;;;;;;2.95;1.50;;;17.70;49.70;;;;;;4937164;29;20090;-86
2022/03/16 05:44:20;;;;;;;3.05;1.50;;;17.70;49.80;;;;;;4954516;29;20043;-86
2022/03/16 05:46:45;;;;;;;2.97;1.42;;;17.70;49.70;;;;;;4954595;29;20043;-87
2022/03/16 05:49:14;;;;;;;3.75;1.80;;;17.70;49.70;;;;;;4954527;29;20518;-86
2022/03/16 05:51:39;;;;;;;3.28;1.42;;;17.50;49.60;;;;;;4937163;29;20459;-87
2022/03/16 05:54:05;;;;;;;2.95;1.30;;;17.70;49.70;;;;;;4937295;29;20063;-86
2022/03/16 05:56:34;;;;;;;3.42;1.30;;;17.70;49.80;;;;;;4936631;29;20054;-86
2022/03/16 05:59:02;;;;;;;2.60;1.00;;;17.70;49.70;;;;;;4937199;29;20051;-86
2022/03/16 06:01:28;;;;;;;3.63;1.30;;;17.70;49.80;;;;;;4935756;29;20048;-86
2022/03/16 06:03:54;;;;;;;2.40;1.15;;;17.70;49.80;;;;;;4936938;29;20043;-88
2022/03/16 06:06:22;;;;;;;3.22;1.30;;;17.70;49.80;;;;;;4954831;29;20055;-87
2022/03/16 06:08:48;;;;;;;2.67;1.20;;;17.70;49.80;;;;;;4954449;29;20054;-88
2022/03/16 06:11:13;;;;;;;3.28;1.60;;;17.70;49.80;;;;;;4936971;29;20067;-87
2022/03/16 06:13:39;;;;;;;3.00;1.23;;;17.70;49.80;;;;;;4937084;29;20039;-88
2022/03/16 06:16:04;;;;;;;2.90;1.20;;;17.70;49.70;;;;;;4936645;29;20078;-87
2022/03/16 06:18:30;;;;;;;2.80;1.25;;;17.60;50.40;;;;;;4937019;29;20099;-87
2022/03/16 06:20:56;;;;;;;2.80;1.40;;;16.70;49.20;;;;;;4937669;29;20787;-88
2022/03/16 06:23:21;;;;;;;3.22;1.50;;;17.60;49.70;;;;;;4936786;29;20665;-87
2022/03/16 06:25:47;;;;;;;2.88;1.45;;;17.60;49.70;;;;;;4937348;29;20113;-89
2022/03/16 06:28:12;;;;;;;2.75;1.30;;;17.60;49.80;;;;;;4939156;29;20039;-89
2022/03/16 06:30:38;;;;;;;3.67;1.30;;;19.30;50.60;;;;;;4944846;29;20575;-89
2022/03/16 06:33:04;;;;;;;2.40;1.23;;;17.60;49.70;;;;;;4931491;29;20138;-88
2022/03/16 06:35:30;;;;;;;3.45;1.23;;;17.60;49.70;;;;;;4930561;29;20102;-90
2022/03/16 06:38:15;;;;;;;3.03;1.10;;;17.60;49.70;;;;;;4954126;29;20059;-89
2022/03/16 06:40:40;;;;;;;3.22;1.33;;;17.60;49.70;;;;;;4938533;29;20067;-88
2022/03/16 06:43:06;;;;;;;2.47;1.17;;;17.80;49.90;;;;;;4919660;29;20503;-92
2022/03/16 06:45:32;;;;;;;2.05;1.10;;;19.30;50.60;;;;;;4919381;29;20052;-91
2022/03/16 06:48:09;;;;;;;2.42;1.20;;;19.10;51.10;;;;;;4923110;29;20090;-91
2022/03/16 06:50:46;;;;;;;2.85;1.23;;;15.90;50.10;;;;;;4942112;29;20043;-91
2022/03/16 06:53:12;;;;;;;2.47;1.17;;;18.90;51.10;;;;;;4937888;28;20051;-89
2022/03/16 06:55:41;;;;;;;2.83;1.15;;;17.80;50.10;;;;;;4937779;29;20066;-90
2022/03/16 06:58:16;;;;;;;3.10;1.33;;;17.80;50.10;;;;;;4954973;29;20058;-89
2022/03/16 07:00:41;;;;;;;3.92;1.33;;;19.00;50.90;;;;;;4937049;29;20059;-90
2022/03/16 07:03:07;;;;;;;2.55;1.20;;;17.50;49.70;;;;;;4937808;29;20098;-89
2022/03/16 07:05:34;;;;;;;2.67;1.00;;;18.40;50.10;;;;;;4955582;29;20122;-90
2022/03/16 07:08:04;;;;;;;3.00;1.20;;;17.60;49.70;;;;;;4954848;29;20078;-89
2022/03/16 07:10:42;;;;;;;3.75;1.20;;;19.30;50.60;;;;;;4955299;29;20117;-90
2022/03/16 07:13:19;;;;;;;2.83;1.30;;;19.00;50.40;;;;;;4938399;29;20059;-89
2022/03/16 07:15:53;;;;;;;2.70;0.98;;;17.40;49.60;;;;;;4954106;29;20047;-89
2022/03/16 07:18:23;;;;;;;3.05;1.27;;;17.60;50.20;;;;;;4954349;29;20054;-88
2022/03/16 07:20:49;;;;;;;2.15;1.15;;;19.30;50.70;;;;;;4936436;29;20050;-89
2022/03/16 07:23:15;;;;;;;3.35;1.52;;;17.50;49.70;;;;;;4937836;29;20058;-90
2022/03/16 07:25:42;;;;;;;2.58;1.40;;;18.80;50.30;;;;;;4953984;29;20043;-84
2022/03/16 07:28:08;;;;;;;3.75;1.27;;;17.60;50.10;;;;;;4954540;29;20054;-89
2022/03/16 07:30:37;;;;;;;2.72;1.10;;;17.60;49.70;;;;;;4936094;29;20035;-87
2022/03/16 07:33:03;;;;;;;3.03;1.15;;;17.50;49.60;;;;;;4925913;29;20051;-87
2022/03/16 07:35:29;;;;;;;2.75;1.00;;;17.60;49.70;;;;;;4937456;29;20049;-89
2022/03/16 07:37:55;;;;;;;2.67;1.15;;;17.60;49.60;;;;;;4949539;29;20400;-88
2022/03/16 07:40:22;;;;;;;3.33;1.27;;;17.50;49.60;;;;;;4935420;29;20039;-89
2022/03/16 07:42:47;;;;;;;2.17;1.05;;;17.60;49.70;;;;;;4936708;29;20113;-87
2022/03/16 07:45:18;;;;;;;3.15;1.40;;;17.50;49.60;;;;;;4926763;29;20137;-90
2022/03/16 07:47:48;;;;;;;3.10;1.20;;;17.60;49.70;;;;;;4936255;29;20136;-84
2022/03/16 07:50:15;;;;;;;3.22;1.38;;;17.90;49.80;;;;;;4925228;29;20051;-89
2022/03/16 07:52:43;;;;;;;3.55;1.38;;;17.50;49.60;;;;;;4935674;29;20051;-88
2022/03/16 07:55:20;;;;;;;4.10;1.92;;;17.50;49.70;;;;;;4933381;29;20138;-86
2022/03/16 07:57:45;;;;;;;4.40;2.15;;;17.50;50.70;;;;;;4931555;29;20609;-87
2022/03/16 08:00:12;;;;;;;8.13;2.38;;;17.50;49.60;;;;;;4934664;29;20484;-89
2022/03/16 08:02:38;;;;;;;5.68;2.65;;;17.60;49.80;;;;;;4917018;29;20134;-87
2022/03/16 08:05:05;;;;;;;5.00;2.20;;;18.00;50.00;;;;;;4916373;29;20066;-85
2022/03/16 08:07:30;;;;;;;4.55;2.28;;;17.60;49.80;;;;;;4934483;29;20044;-87
2022/03/16 08:09:56;;;;;;;4.30;2.30;;;17.60;49.70;;;;;;4915712;29;20089;-88
2022/03/16 08:12:25;;;;;;;5.65;2.40;;;17.60;49.80;;;;;;4952776;29;20043;-87
2022/03/16 08:14:54;;;;;;;5.90;2.05;;;17.60;49.80;;;;;;4933399;29;20059;-87
2022/03/16 08:17:19;;;;;;;4.72;2.50;;;17.70;49.80;;;;;;4935697;29;20055;-88
2022/03/16 08:19:45;;;;;;;5.45;2.17;;;17.70;49.80;;;;;;4934641;29;20514;-87
2022/03/16 08:22:11;;;;;;;6.53;2.50;;;17.70;49.80;;;;;;4946493;29;20055;-90
2022/03/16 08:24:36;;;;;;;4.38;2.22;;;17.70;49.70;;;;;;4943424;29;20043;-86
2022/03/16 08:27:02;;;;;;;6.68;2.90;;;17.70;49.70;;;;;;4934516;29;20802;-87
2022/03/16 08:29:27;;;;;;;6.10;3.13;;;17.70;49.80;;;;;;4934154;29;20087;-88
2022/03/16 08:31:54;;;;;;;6.95;2.97;;;17.70;49.70;;;;;;4951555;29;20074;-85
2022/03/16 08:34:20;;;;;;;36.30;13.07;;;17.70;49.70;;;;;;4934157;29;20153;-85
2022/03/16 08:36:45;;;;;;;84.68;28.08;;;17.70;49.80;;;;;;4933973;29;20118;-87
2022/03/16 08:39:11;;;;;;;117.75;41.17;;;17.80;50.00;;;;;;4934254;29;20126;-90
2022/03/16 08:41:37;;;;;;;144.50;51.53;;;17.80;49.80;;;;;;4932714;29;20117;-87
2022/03/16 08:44:02;;;;;;;160.73;52.95;;;17.80;50.20;;;;;;4931808;29;20044;-85
2022/03/16 08:46:31;;;;;;;166.30;55.00;;;17.80;50.10;;;;;;4935548;29;20094;-92
2022/03/16 08:48:57;;;;;;;149.18;50.58;;;17.80;49.80;;;;;;4931448;29;20486;-91
2022/03/16 08:51:23;;;;;;;144.85;48.25;;;18.50;50.30;;;;;;4930633;29;20079;-90
2022/03/16 08:53:49;;;;;;;135.50;45.53;;;17.90;50.20;;;;;;4931510;28;20066;-91
2022/03/16 08:56:15;;;;;;;130.52;43.90;;;17.90;50.10;;;;;;4952780;28;20054;-90
2022/03/16 08:58:44;;;;;;;115.82;40.10;;;17.90;50.00;;;;;;4954167;29;20046;-90
2022/03/16 09:01:09;;;;;;;105.97;38.35;;;17.90;50.00;;;;;;4952744;29;20043;-89
2022/03/16 09:03:35;;;;;;;103.93;37.72;;;18.00;50.10;;;;;;4935834;29;20106;-88
2022/03/16 09:06:03;;;;;;;105.65;37.20;;;18.00;50.10;;;;;;4935993;29;20098;-85
2022/03/16 09:08:56;;;;;;;85.80;33.70;;;18.00;50.10;;;;;;4937116;29;20137;-84
2022/03/16 09:11:22;;;;;;;92.72;32.20;;;19.00;50.70;;;;;;4934788;29;20186;-84
2022/03/16 09:17:38;;;;;;;80.25;29.45;;;18.10;50.30;;;;;;4895358;29;20060;-86
2022/03/16 09:20:04;;;;;;;86.70;30.23;;;19.40;51.30;;;;;;4878892;29;20059;-86
2022/03/16 09:22:36;;;;;;;75.85;29.45;;;18.10;50.40;;;;;;4927412;29;20411;-86
2022/03/16 09:25:02;;;;;;;67.40;26.30;;;18.20;50.30;;;;;;4935789;29;20051;-86
2022/03/16 09:27:37;;;;;;;64.38;25.30;;;18.10;50.10;;;;;;4919581;29;20071;-84
2022/03/16 09:30:07;;;;;;;70.88;26.52;;;18.50;50.40;;;;;;4917694;29;20048;-84
2022/03/16 09:32:33;;;;;;;66.78;23.55;;;18.10;50.30;;;;;;4918427;29;20043;-84
2022/03/16 09:35:09;;;;;;;63.35;23.38;;;19.30;50.70;;;;;;4935226;29;20055;-84
2022/03/16 09:37:34;;;;;;;63.38;25.05;;;18.10;51.10;;;;;;4918458;29;20052;-84
2022/03/16 09:40:04;;;;;;;61.10;23.10;;;18.90;50.80;;;;;;4934632;29;20095;-84
2022/03/16 09:42:37;;;;;;;57.35;23.83;;;18.20;50.10;;;;;;4935315;29;20131;-84
2022/03/16 09:45:03;;;;;;;57.80;22.13;;;19.00;50.30;;;;;;4902514;29;20477;-84
2022/03/16 09:47:44;;;;;;;57.70;21.67;;;18.10;50.10;;;;;;4917746;29;20062;-84
2022/03/16 09:50:09;;;;;;;56.15;21.48;;;18.50;50.30;;;;;;4937166;29;20052;-83
2022/03/16 09:52:35;;;;;;;51.25;21.50;;;18.20;49.90;;;;;;4949544;29;20045;-84
2022/03/16 09:55:02;;;;;;;52.67;20.90;;;18.20;49.80;;;;;;4934935;29;20059;-91
2022/03/16 09:57:27;;;;;;;47.30;19.27;;;18.30;49.80;;;;;;4948812;28;20058;-85
2022/03/16 09:59:53;;;;;;;47.60;19.00;;;18.20;49.80;;;;;;4946515;29;20047;-84
2022/03/16 10:02:21;;;;;;;37.30;16.90;;;18.20;49.70;;;;;;4950932;29;20069;-80
2022/03/16 10:04:46;;;;;;;43.70;17.88;;;19.70;50.50;;;;;;4932371;29;20134;-81
2022/03/16 10:07:12;;;;;;;46.50;18.05;;;18.30;49.70;;;;;;4936599;28;20194;-81
2022/03/16 10:15:16;;;;;;;35.30;14.57;;;18.40;49.50;;;;;;4949077;29;20051;-82
2022/03/16 10:17:43;;;;;;;35.67;14.70;;;18.40;49.50;;;;;;4950036;29;20097;-84
2022/03/16 10:20:09;;;;;;;33.58;13.60;;;18.50;49.50;;;;;;4935792;29;20039;-84
2022/03/16 10:22:46;;;;;;;34.60;14.27;;;19.20;50.00;;;;;;4936105;29;20059;-84
2022/03/16 10:25:17;;;;;;;31.73;13.43;;;18.80;49.70;;;;;;4937854;29;20192;-88
2022/03/16 10:27:53;;;;;;;28.25;12.07;;;19.80;50.30;;;;;;4906113;29;20086;-87
2022/03/16 10:30:20;;;;;;;29.45;12.43;;;19.50;50.50;;;;;;4909768;28;20059;-84
2022/03/16 10:33:12;;;;;;;30.75;12.75;;;18.00;49.20;;;;;;4941746;29;20051;-85
2022/03/16 10:36:13;;;;;;;29.48;12.02;;;18.60;49.30;;;;;;4951531;29;20069;-84
2022/03/16 10:38:42;;;;;;;28.57;10.90;;;19.70;49.90;;;;;;4952843;29;20094;-84
2022/03/16 10:47:30;;;;;;;24.05;10.40;;;19.70;49.90;;;;;;4928644;29;20058;-83
2022/03/16 10:50:09;;;;;;;26.85;10.60;;;19.90;50.00;;;;;;4952566;29;20047;-83
2022/03/16 10:52:35;;;;;;;24.92;10.13;;;18.70;49.20;;;;;;4936716;29;20403;-83
2022/03/16 10:55:02;;;;;;;23.52;10.10;;;19.80;49.80;;;;;;4904621;29;20055;-84
2022/03/16 10:57:28;;;;;;;23.85;9.23;;;18.70;49.10;;;;;;4920123;29;20051;-84
2022/03/16 10:59:54;;;;;;;21.00;9.73;;;18.70;49.10;;;;;;4920004;29;20055;-83
2022/03/16 11:02:20;;;;;;;24.60;10.18;;;18.70;49.10;;;;;;4920382;29;20054;-84
2022/03/16 11:04:50;;;;;;;21.50;9.27;;;20.00;49.80;;;;;;4919662;29;20467;-84
2022/03/16 11:07:16;;;;;;;20.08;9.13;;;18.70;49.00;;;;;;4932477;29;20054;-88
2022/03/16 11:09:41;;;;;;;27.00;9.55;;;18.90;49.20;;;;;;4936071;29;20054;-87
2022/03/16 11:14:52;;;;;;;22.58;9.10;;;18.70;49.10;;;;;;4934858;29;20062;-88
2022/03/16 11:17:23;;;;;;;21.98;9.20;;;18.70;49.00;;;;;;4953223;29;20047;-87
2022/03/16 11:19:52;;;;;;;20.43;9.57;;;18.70;49.00;;;;;;4935713;29;20106;-87
2022/03/16 11:22:29;;;;;;;23.40;8.80;;;18.70;49.00;;;;;;4921023;29;20059;-87
2022/03/16 11:25:10;;;;;;;20.92;8.65;;;19.40;49.40;;;;;;4936359;29;20562;-88
2022/03/16 11:27:52;;;;;;;21.65;9.45;;;18.80;49.10;;;;;;4936086;29;20463;-86
2022/03/16 11:30:26;;;;;;;17.95;7.95;;;18.80;49.00;;;;;;4950859;23;20146;-86
2022/03/16 11:32:56;;;;;;;17.58;7.07;;;18.80;49.00;;;;;;4920590;29;20135;-86
2022/03/16 11:35:23;;;;;;;18.85;7.82;;;18.80;49.00;;;;;;4953256;29;20058;-87
2022/03/16 11:37:50;;;;;;;17.90;7.30;;;19.60;50.10;;;;;;4936820;29;20121;-88
2022/03/16 11:40:24;;;;;;;18.83;7.30;;;18.80;49.00;;;;;;4935392;29;20047;-86
2022/03/16 11:43:06;;;;;;;16.38;6.07;;;18.80;49.00;;;;;;4953679;29;20059;-86
2022/03/16 11:45:38;;;;;;;21.25;7.60;;;19.40;49.20;;;;;;4948305;29;20059;-86
2022/03/16 11:48:31;;;;;;;17.70;7.35;;;18.80;48.90;;;;;;4934497;29;20061;-87
2022/03/16 11:51:08;;;;;;;15.45;7.07;;;18.80;48.90;;;;;;4953463;29;20051;-86
2022/03/16 11:53:58;;;;;;;13.77;6.28;;;18.90;49.00;;;;;;4953319;29;20054;-86
2022/03/16 11:56:36;;;;;;;16.60;6.20;;;18.90;49.00;;;;;;4916712;29;20516;-86
2022/03/16 11:59:28;;;;;;;16.95;6.80;;;18.90;48.90;;;;;;4919074;29;20040;-87
2022/03/16 12:02:10;;;;;;;17.75;7.28;;;18.90;48.90;;;;;;4945166;29;20051;-86
2022/03/16 12:07:14;;;;;;;13.77;6.00;;;18.90;48.90;;;;;;5338140;23;20515;-88
2022/03/16 12:09:47;;;;;;;14.45;6.65;;;18.90;48.90;;;;;;4935840;29;20110;-88
2022/03/16 12:15:24;;;;;;;16.92;6.15;;;18.70;48.70;;;;;;4953197;29;20488;-85
2022/03/16 12:17:52;;;;;;;13.23;5.70;;;20.20;49.80;;;;;;4936422;29;20097;-88
2022/03/16 12:31:05;;;;;;;10.88;5.40;;;18.90;48.90;;;;;;4939844;29;20047;-88
2022/03/16 12:33:48;;;;;;;12.63;5.82;;;20.00;49.30;;;;;;4949945;29;20046;-87
2022/03/16 12:43:27;;;;;;;13.60;4.88;;;18.80;48.60;;;;;;4945421;29;20165;-88
2022/03/16 12:46:29;;;;;;;12.10;4.75;;;20.40;50.10;;;;;;4951421;29;20055;-89
2022/03/16 12:49:14;;;;;;;12.40;4.68;;;18.50;48.40;;;;;;4947794;29;20054;-88
2022/03/16 12:52:22;;;;;;;11.77;4.43;;;19.10;48.70;;;;;;4934791;29;20051;-88
2022/03/16 12:54:50;;;;;;;11.57;4.63;;;19.10;48.70;;;;;;4912351;29;20056;-87
2022/03/16 12:57:38;;;;;;;11.35;4.82;;;19.20;48.70;;;;;;4941406;29;20511;-88
2022/03/16 13:00:18;;;;;;;11.57;4.68;;;18.70;48.40;;;;;;4921658;29;20103;-88
2022/03/16 13:02:44;;;;;;;9.60;4.18;;;18.90;48.70;;;;;;4948279;29;20044;-89
2022/03/16 13:05:10;;;;;;;9.57;4.22;;;19.10;48.60;;;;;;4907756;29;20083;-88
2022/03/16 13:08:01;;;;;;;10.65;4.93;;;19.10;48.70;;;;;;4925653;29;20059;-88
2022/03/16 13:14:18;;;;;;;9.32;4.20;;;19.10;48.50;;;;;;4876035;29;20053;-88
2022/03/16 13:17:29;;;;;;;;;;;;;;;;;;;;;
2022/03/16 13:19:58;;;;;;;11.02;4.13;;;19.30;48.60;;;;;;4934501;29;20066;-87
2022/03/16 13:22:30;;;;;;;9.93;3.85;;;20.60;49.90;;;;;;4939403;29;20094;-88
2022/03/16 13:25:17;;;;;;;9.60;4.47;;;19.10;48.50;;;;;;4940385;29;20059;-87
2022/03/16 13:27:51;;;;;;;11.32;4.10;;;20.00;49.10;;;;;;4947918;29;20424;-87
2022/03/16 13:30:35;;;;;;;10.25;3.75;;;18.90;48.40;;;;;;4928755;29;20051;-87
2022/03/16 13:33:04;;;;;;;9.02;3.83;;;19.70;49.50;;;;;;4905797;29;20050;-87
2022/03/16 13:36:12;;;;;;;9.00;3.58;;;20.20;49.50;;;;;;4924044;29;20539;-86